createdAt,value
2018-11-14T04:45:20.182Z,21.51
2018-11-14T04:46:20.237Z,21.08
2018-11-14T04:48:13.176Z,20.15
2018-11-14T04:49:13.004Z,19.77
2018-11-14T04:51:05.959Z,19.35
2018-11-14T04:52:05.894Z,19.30
2018-11-14T04:53:58.856Z,19.38
2018-11-14T04:54:58.751Z,19.37
2018-11-14T04:56:51.638Z,19.47
2018-11-14T04:57:51.590Z,19.56
2018-11-14T04:58:51.589Z,19.63
2018-11-14T04:59:51.572Z,19.77
2018-11-14T05:00:51.558Z,19.87
2018-11-14T05:01:51.557Z,20.00
2018-11-14T05:02:51.541Z,20.00
2018-11-14T05:03:51.535Z,20.21
2018-11-14T05:04:51.522Z,20.21
2018-11-14T05:05:51.507Z,20.32
2018-11-14T05:06:51.498Z,20.40
2018-11-14T05:07:51.486Z,20.53
2018-11-14T05:08:51.475Z,20.58
2018-11-14T05:09:51.471Z,20.56
2018-11-14T05:10:51.464Z,20.85
2018-11-14T05:11:51.444Z,20.70
2018-11-14T05:12:51.500Z,20.83
2018-11-14T05:13:51.429Z,20.86
2018-11-14T05:14:51.416Z,20.85
2018-11-14T05:15:51.410Z,20.89
2018-11-14T05:16:51.404Z,21.00
2018-11-14T05:17:51.386Z,21.03
2018-11-14T05:18:51.377Z,21.00
2018-11-14T05:19:51.369Z,21.01
2018-11-14T05:20:51.358Z,21.19
2018-11-14T05:21:51.354Z,21.25
2018-11-14T05:22:51.347Z,21.19
2018-11-14T05:23:51.330Z,21.28
2018-11-14T05:24:51.324Z,21.33
2018-11-14T05:25:51.312Z,21.28
2018-11-14T05:26:51.300Z,21.37
2018-11-14T05:27:51.292Z,21.38
2018-11-14T05:28:51.283Z,21.43
2018-11-14T05:29:51.278Z,21.43
2018-11-14T05:30:51.264Z,21.41
2018-11-14T05:31:51.283Z,21.40
2018-11-14T05:32:51.249Z,21.41
2018-11-14T05:33:51.232Z,21.48
2018-11-14T05:34:51.230Z,21.44
2018-11-14T05:35:51.220Z,21.58
2018-11-14T05:36:51.207Z,21.53
2018-11-14T05:37:51.195Z,21.56
2018-11-14T05:38:51.193Z,21.51
2018-11-14T05:39:51.328Z,21.58
2018-11-14T05:40:51.172Z,21.56
2018-11-14T05:41:51.157Z,21.59
2018-11-14T05:42:51.152Z,21.53
2018-11-14T05:43:51.147Z,21.51
2018-11-14T05:44:51.131Z,21.54
2018-11-14T05:45:51.118Z,21.62
2018-11-14T05:46:51.117Z,21.59
2018-11-14T05:47:51.166Z,21.66
2018-11-14T05:48:51.093Z,21.56
2018-11-14T05:49:51.082Z,21.66
2018-11-14T05:50:51.077Z,21.66
2018-11-14T05:51:51.070Z,21.63
2018-11-14T05:52:51.060Z,21.62
2018-11-14T05:53:51.052Z,21.65
2018-11-14T05:54:51.074Z,21.63
2018-11-14T05:55:51.031Z,21.63
2018-11-14T05:56:51.025Z,21.63
2018-11-14T05:57:51.015Z,21.63
2018-11-14T05:58:51.006Z,21.65
2018-11-14T05:59:50.998Z,21.65
2018-11-14T06:00:50.986Z,21.59
2018-11-14T06:01:50.976Z,21.68
2018-11-14T06:02:50.964Z,21.54
2018-11-14T06:03:50.955Z,21.50
2018-11-14T06:04:50.947Z,21.60
2018-11-14T06:05:50.938Z,21.50
2018-11-14T06:06:50.934Z,21.48
2018-11-14T06:07:50.918Z,21.50
2018-11-14T06:08:50.911Z,21.53
2018-11-14T06:09:50.901Z,21.58
2018-11-14T06:10:50.896Z,21.53
2018-11-14T06:11:50.882Z,21.60
2018-11-14T06:12:50.909Z,21.50
2018-11-14T06:13:50.873Z,21.51
2018-11-14T06:14:50.856Z,21.56
2018-11-14T06:15:50.850Z,21.48
2018-11-14T06:16:50.837Z,21.66
2018-11-14T06:17:50.827Z,21.54
2018-11-14T06:18:50.815Z,21.59
2018-11-14T06:19:50.810Z,21.72
2018-11-14T06:20:50.800Z,21.63
2018-11-14T06:21:50.829Z,21.66
2018-11-14T06:22:50.786Z,21.66
2018-11-14T06:23:50.780Z,21.62
2018-11-14T06:24:50.772Z,21.69
2018-11-14T06:25:50.763Z,21.66
2018-11-14T06:26:50.755Z,21.62
2018-11-14T06:27:50.739Z,21.62
2018-11-14T06:28:50.728Z,21.62
2018-11-14T06:29:50.786Z,21.66
2018-11-14T06:30:50.715Z,21.63
2018-11-14T06:31:50.713Z,21.63
2018-11-14T06:32:50.691Z,21.66
2018-11-14T06:33:50.681Z,21.66
2018-11-14T06:34:50.668Z,21.65
2018-11-14T06:35:50.662Z,21.69
2018-11-14T06:36:50.658Z,21.65
2018-11-14T06:37:50.645Z,21.63
2018-11-14T06:38:50.638Z,21.69
2018-11-14T06:39:50.628Z,21.65
2018-11-14T06:40:50.619Z,21.66
2018-11-14T06:41:50.618Z,21.83
2018-11-14T06:42:50.603Z,21.66
2018-11-14T06:43:50.596Z,21.68
2018-11-14T06:44:50.589Z,21.69
2018-11-14T06:45:50.569Z,21.70
2018-11-14T06:46:50.564Z,21.70
2018-11-14T06:47:50.560Z,21.66
2018-11-14T06:48:50.548Z,21.72
2018-11-14T06:49:50.605Z,21.72
2018-11-14T06:50:50.531Z,21.70
2018-11-14T06:51:50.518Z,21.66
2018-11-14T06:52:50.514Z,21.68
2018-11-14T06:53:50.506Z,21.69
2018-11-14T06:54:50.497Z,21.68
2018-11-14T06:55:50.476Z,21.74
2018-11-14T06:56:50.473Z,21.68
2018-11-14T06:57:50.462Z,21.68
2018-11-14T06:58:50.570Z,21.66
2018-11-14T06:59:50.461Z,21.70
2018-11-14T07:00:50.445Z,21.68
2018-11-14T07:01:50.431Z,21.63
2018-11-14T07:02:50.419Z,21.70
2018-11-14T07:03:50.409Z,21.68
2018-11-14T07:04:50.458Z,21.65
2018-11-14T07:05:50.587Z,21.63
2018-11-14T07:06:50.389Z,21.59
2018-11-14T07:07:50.380Z,21.62
2018-11-14T07:08:50.369Z,21.70
2018-11-14T07:09:50.363Z,21.66
2018-11-14T07:10:50.362Z,21.62
2018-11-14T07:11:50.339Z,21.68
2018-11-14T07:12:50.331Z,21.66
2018-11-14T07:13:50.318Z,21.60
2018-11-14T07:14:50.308Z,21.59
2018-11-14T07:15:50.301Z,21.66
2018-11-14T07:16:50.292Z,21.59
2018-11-14T07:17:50.350Z,21.69
2018-11-14T07:18:50.273Z,21.62
2018-11-14T07:19:50.272Z,21.58
2018-11-14T07:20:50.259Z,21.65
2018-11-14T07:21:50.256Z,21.63
2018-11-14T07:22:50.235Z,21.65
2018-11-14T07:23:50.252Z,21.59
2018-11-14T07:24:50.220Z,21.63
2018-11-14T07:25:50.214Z,21.66
2018-11-14T07:26:50.201Z,21.62
2018-11-14T07:27:50.194Z,21.66
2018-11-14T07:28:50.187Z,21.58
2018-11-14T07:29:50.172Z,21.66
2018-11-14T07:30:50.170Z,21.63
2018-11-14T07:31:50.154Z,21.66
2018-11-14T07:32:50.150Z,21.65
2018-11-14T07:33:50.132Z,21.63
2018-11-14T07:34:50.127Z,21.59
2018-11-14T07:35:50.123Z,21.65
2018-11-14T07:36:50.110Z,21.62
2018-11-14T07:37:50.180Z,21.62
2018-11-14T07:38:50.090Z,21.58
2018-11-14T07:39:50.082Z,21.70
2018-11-14T07:40:50.076Z,21.66
2018-11-14T07:41:50.065Z,21.66
2018-11-14T07:42:50.084Z,21.63
2018-11-14T07:43:50.118Z,21.62
2018-11-14T07:44:50.044Z,21.66
2018-11-14T07:45:50.030Z,21.66
2018-11-14T07:46:50.069Z,21.66
2018-11-14T07:47:50.011Z,21.66
2018-11-14T07:48:50.068Z,21.68
2018-11-14T07:49:49.995Z,21.66
2018-11-14T07:50:49.984Z,21.66
2018-11-14T07:51:49.980Z,21.65
2018-11-14T07:52:49.962Z,21.68
2018-11-14T07:53:49.959Z,21.72
2018-11-14T07:54:49.962Z,21.74
2018-11-14T07:55:49.938Z,21.70
2018-11-14T07:56:49.932Z,21.66
2018-11-14T07:57:49.919Z,21.65
2018-11-14T07:58:49.909Z,21.77
2018-11-14T07:59:49.902Z,21.72
2018-11-14T08:00:49.896Z,21.66
2018-11-14T08:01:49.885Z,21.66
2018-11-14T08:02:49.876Z,21.70
2018-11-14T08:03:49.870Z,21.70
2018-11-14T08:04:49.852Z,21.75
2018-11-14T08:05:49.855Z,21.66
2018-11-14T08:06:49.838Z,21.68
2018-11-14T08:07:49.966Z,21.74
2018-11-14T08:08:49.819Z,21.68
2018-11-14T08:09:49.813Z,21.68
2018-11-14T08:10:49.805Z,21.78
2018-11-14T08:11:49.792Z,21.68
2018-11-14T08:12:49.788Z,21.72
2018-11-14T08:13:49.773Z,21.66
2018-11-14T08:14:49.762Z,21.66
2018-11-14T08:15:49.757Z,21.66
2018-11-14T08:16:49.758Z,21.72
2018-11-14T08:17:49.737Z,21.74
2018-11-14T08:18:49.753Z,21.69
2018-11-14T08:19:49.722Z,21.74
2018-11-14T08:20:49.710Z,21.74
2018-11-14T08:21:49.700Z,21.77
2018-11-14T08:22:49.693Z,21.75
2018-11-14T08:23:49.683Z,21.74
2018-11-14T08:24:49.674Z,21.80
2018-11-14T08:25:49.667Z,21.74
2018-11-14T08:26:49.658Z,21.77
2018-11-14T08:27:49.647Z,21.78
2018-11-14T08:28:49.641Z,21.78
2018-11-14T08:29:49.629Z,21.72
2018-11-14T08:30:49.616Z,21.77
2018-11-14T08:31:49.610Z,21.78
2018-11-14T08:32:49.605Z,21.72
2018-11-14T08:33:49.597Z,21.75
2018-11-14T08:34:49.583Z,21.74
2018-11-14T08:35:49.584Z,21.72
2018-11-14T08:36:49.568Z,21.70
2018-11-14T08:37:49.574Z,21.72
2018-11-14T08:38:49.548Z,21.74
2018-11-14T08:39:49.538Z,21.72
2018-11-14T08:40:49.530Z,21.70
2018-11-14T08:41:49.522Z,21.81
2018-11-14T08:42:49.512Z,21.75
2018-11-14T08:43:49.509Z,21.68
2018-11-14T08:44:49.500Z,21.77
2018-11-14T08:45:49.484Z,21.77
2018-11-14T08:46:49.482Z,21.72
2018-11-14T08:47:49.464Z,21.72
2018-11-14T08:48:49.468Z,21.75
2018-11-14T08:49:49.448Z,21.78
2018-11-14T08:50:49.439Z,21.70
2018-11-14T08:51:49.428Z,21.68
2018-11-14T08:52:49.421Z,21.74
2018-11-14T08:53:49.412Z,21.72
2018-11-14T08:54:49.410Z,21.78
2018-11-14T08:55:49.393Z,21.80
2018-11-14T08:56:49.391Z,21.77
2018-11-14T08:57:49.393Z,21.80
2018-11-14T08:58:49.366Z,21.78
2018-11-14T08:59:49.366Z,21.75
2018-11-14T09:00:49.350Z,21.70
2018-11-14T09:01:49.363Z,21.75
2018-11-14T09:02:49.329Z,21.72
2018-11-14T09:03:49.341Z,21.74
2018-11-14T09:04:49.317Z,21.74
2018-11-14T09:05:49.303Z,21.74
2018-11-14T09:06:49.295Z,21.75
2018-11-14T09:07:49.318Z,21.74
2018-11-14T09:08:49.277Z,21.75
2018-11-14T09:09:49.266Z,21.80
2018-11-14T09:10:49.304Z,21.81
2018-11-14T09:11:49.257Z,21.77
2018-11-14T09:12:49.268Z,21.72
2018-11-14T09:13:49.230Z,21.80
2018-11-14T09:14:49.254Z,21.77
2018-11-14T09:15:49.214Z,21.75
2018-11-14T09:16:49.206Z,21.75
2018-11-14T09:17:49.194Z,21.84
2018-11-14T09:18:49.283Z,21.78
2018-11-14T09:19:49.177Z,21.83
2018-11-14T09:20:49.172Z,21.84
2018-11-14T09:21:49.157Z,21.84
2018-11-14T09:22:49.148Z,21.83
2018-11-14T09:23:49.167Z,21.83
2018-11-14T09:24:49.199Z,21.81
2018-11-14T09:25:49.122Z,21.81
2018-11-14T09:26:49.123Z,21.88
2018-11-14T09:27:49.108Z,21.81
2018-11-14T09:28:49.105Z,21.84
2018-11-14T09:29:49.091Z,21.75
2018-11-14T09:30:49.076Z,21.80
2018-11-14T09:31:49.068Z,21.83
2018-11-14T09:32:49.128Z,21.88
2018-11-14T09:33:49.054Z,21.84
2018-11-14T09:34:49.127Z,21.89
2018-11-14T09:35:49.032Z,21.85
2018-11-14T09:36:49.022Z,21.84
2018-11-14T09:37:49.013Z,21.75
2018-11-14T09:38:49.007Z,21.89
2018-11-14T09:39:49.009Z,21.83
2018-11-14T09:40:49.050Z,21.85
2018-11-14T09:41:48.975Z,21.85
2018-11-14T09:42:48.971Z,21.85
2018-11-14T09:43:49.008Z,21.83
2018-11-14T09:44:48.961Z,21.83
2018-11-14T09:45:48.944Z,21.80
2018-11-14T09:46:48.933Z,21.84
2018-11-14T09:47:48.919Z,21.83
2018-11-14T09:48:48.919Z,21.85
2018-11-14T09:49:48.911Z,21.80
2018-11-14T09:50:48.896Z,21.83
2018-11-14T09:51:48.889Z,21.85
2018-11-14T09:52:48.909Z,21.80
2018-11-14T09:53:48.877Z,21.85
2018-11-14T09:54:48.862Z,21.85
2018-11-14T09:55:48.851Z,21.84
2018-11-14T09:56:48.909Z,21.83
2018-11-14T09:57:48.833Z,21.74
2018-11-14T09:58:48.895Z,21.83
2018-11-14T09:59:48.816Z,21.84
2018-11-14T10:00:48.862Z,21.78
2018-11-14T10:01:48.815Z,21.85
2018-11-14T10:02:48.802Z,21.85
2018-11-14T10:03:48.786Z,21.80
2018-11-14T10:04:48.771Z,21.84
2018-11-14T10:05:48.799Z,21.85
2018-11-14T10:06:48.748Z,21.80
2018-11-14T10:07:48.784Z,21.85
2018-11-14T10:08:48.744Z,21.83
2018-11-14T10:09:48.720Z,21.83
2018-11-14T10:10:48.755Z,21.85
2018-11-14T10:11:48.719Z,21.85
2018-11-14T10:12:48.698Z,21.80
2018-11-14T10:13:48.689Z,21.88
2018-11-14T10:14:48.679Z,21.80
2018-11-14T10:15:48.742Z,21.81
2018-11-14T10:16:48.664Z,21.81
2018-11-14T10:17:48.662Z,21.75
2018-11-14T10:18:48.644Z,21.88
2018-11-14T10:19:48.637Z,21.83
2018-11-14T10:20:48.626Z,21.78
2018-11-14T10:21:48.616Z,21.77
2018-11-14T10:22:48.605Z,21.84
2018-11-14T10:23:48.600Z,21.80
2018-11-14T10:24:48.587Z,21.81
2018-11-14T10:25:48.605Z,21.85
2018-11-14T10:26:48.570Z,21.78
2018-11-14T10:27:48.577Z,21.78
2018-11-14T10:28:48.562Z,21.85
2018-11-14T10:29:48.545Z,21.85
2018-11-14T10:30:48.565Z,21.74
2018-11-14T10:31:48.661Z,21.80
2018-11-14T10:32:48.526Z,21.77
2018-11-14T10:33:48.513Z,21.77
2018-11-14T10:34:48.516Z,21.72
2018-11-14T10:35:48.500Z,21.74
2018-11-14T10:36:48.488Z,21.84
2018-11-14T10:37:48.494Z,21.77
2018-11-14T10:38:48.466Z,21.80
2018-11-14T10:39:48.453Z,21.83
2018-11-14T10:40:48.544Z,21.75
2018-11-14T10:41:48.438Z,21.77
2018-11-14T10:42:48.463Z,21.83
2018-11-14T10:43:48.480Z,21.80
2018-11-14T10:44:48.415Z,21.74
2018-11-14T10:45:48.422Z,21.77
2018-11-14T10:46:48.395Z,21.77
2018-11-14T10:47:48.379Z,21.74
2018-11-14T10:48:48.375Z,21.75
2018-11-14T10:49:48.363Z,21.77
2018-11-14T10:50:48.423Z,21.80
2018-11-14T10:51:48.349Z,21.80
2018-11-14T10:52:48.338Z,21.80
2018-11-14T10:53:48.329Z,21.80
2018-11-14T10:54:48.319Z,21.80
2018-11-14T10:55:48.310Z,21.81
2018-11-14T10:56:48.295Z,21.80
2018-11-14T10:57:48.291Z,21.81
2018-11-14T10:58:48.293Z,21.85
2018-11-14T10:59:48.272Z,21.84
2018-11-14T11:00:48.264Z,21.78
2018-11-14T11:01:48.256Z,21.84
2018-11-14T11:02:48.247Z,21.85
2018-11-14T11:03:48.235Z,21.83
2018-11-14T11:04:48.226Z,21.88
2018-11-14T11:05:48.218Z,21.88
2018-11-14T11:06:48.212Z,21.89
2018-11-14T11:07:48.217Z,21.88
2018-11-14T11:08:48.191Z,21.91
2018-11-14T11:09:48.181Z,21.91
2018-11-14T11:10:48.175Z,21.88
2018-11-14T11:11:48.164Z,21.88
2018-11-14T11:12:48.156Z,21.84
2018-11-14T11:13:48.189Z,21.88
2018-11-14T11:14:48.138Z,21.85
2018-11-14T11:15:48.128Z,21.84
2018-11-14T11:16:48.125Z,21.92
2018-11-14T11:17:48.114Z,21.91
2018-11-14T11:18:48.102Z,21.85
2018-11-14T11:19:48.090Z,21.85
2018-11-14T11:20:48.079Z,21.91
2018-11-14T11:21:48.076Z,21.88
2018-11-14T11:22:48.068Z,21.88
2018-11-14T11:23:48.051Z,21.92
2018-11-14T11:24:48.049Z,21.88
2018-11-14T11:25:48.042Z,21.88
2018-11-14T11:26:48.037Z,21.85
2018-11-14T11:27:48.021Z,21.89
2018-11-14T11:28:48.010Z,21.89
2018-11-14T11:29:48.002Z,21.78
2018-11-14T11:30:48.049Z,21.85
2018-11-14T11:31:48.002Z,21.84
2018-11-14T11:32:47.977Z,21.91
2018-11-14T11:33:47.964Z,21.77
2018-11-14T11:34:47.961Z,21.85
2018-11-14T11:35:47.947Z,21.80
2018-11-14T11:36:47.942Z,21.80
2018-11-14T11:37:47.942Z,21.85
2018-11-14T11:38:47.922Z,21.80
2018-11-14T11:39:47.911Z,21.81
2018-11-14T11:40:47.901Z,21.83
2018-11-14T11:41:47.892Z,21.77
2018-11-14T11:42:47.886Z,21.85
2018-11-14T11:43:47.880Z,21.83
2018-11-14T11:44:47.865Z,21.83
2018-11-14T11:45:47.853Z,21.81
2018-11-14T11:46:47.846Z,21.80
2018-11-14T11:47:47.844Z,21.92
2018-11-14T11:48:47.837Z,21.81
2018-11-14T11:49:47.822Z,21.92
2018-11-14T11:50:47.832Z,21.78
2018-11-14T11:51:47.801Z,21.83
2018-11-14T11:52:47.793Z,21.74
2018-11-14T11:53:47.797Z,21.84
2018-11-14T11:54:47.776Z,21.84
2018-11-14T11:55:47.762Z,21.81
2018-11-14T11:56:47.758Z,21.81
2018-11-14T11:57:47.748Z,21.80
2018-11-14T11:58:47.742Z,21.77
2018-11-14T11:59:47.872Z,21.80
2018-11-14T12:00:47.791Z,21.81
2018-11-14T12:01:47.712Z,21.77
2018-11-14T12:02:47.711Z,21.78
2018-11-14T12:03:47.697Z,21.72
2018-11-14T12:04:47.694Z,21.80
2018-11-14T12:05:47.684Z,21.80
2018-11-14T12:06:47.666Z,21.78
2018-11-14T12:07:47.657Z,21.81
2018-11-14T12:08:47.649Z,21.78
2018-11-14T12:09:47.644Z,21.80
2018-11-14T12:10:47.682Z,21.74
2018-11-14T12:11:47.628Z,21.75
2018-11-14T12:12:47.669Z,21.81
2018-11-14T12:13:47.669Z,21.75
2018-11-14T12:14:47.595Z,21.77
2018-11-14T12:15:47.585Z,21.80
2018-11-14T12:16:47.580Z,21.83
2018-11-14T12:17:47.575Z,21.77
2018-11-14T12:18:47.558Z,21.74
2018-11-14T12:19:47.549Z,21.78
2018-11-14T12:20:47.545Z,21.81
2018-11-14T12:21:47.530Z,21.81
2018-11-14T12:22:47.521Z,21.77
2018-11-14T12:23:47.546Z,21.78
2018-11-14T12:24:47.505Z,21.83
2018-11-14T12:25:47.499Z,21.83
2018-11-14T12:26:47.488Z,21.80
2018-11-14T12:27:47.484Z,21.80
2018-11-14T12:28:47.477Z,21.81
2018-11-14T12:29:47.521Z,21.78
2018-11-14T12:30:47.563Z,21.83
2018-11-14T12:31:47.443Z,21.80
2018-11-14T12:32:47.480Z,21.84
2018-11-14T12:33:47.422Z,21.77
2018-11-14T12:34:47.490Z,21.78
2018-11-14T12:35:47.477Z,21.83
2018-11-14T12:36:47.401Z,21.75
2018-11-14T12:37:47.391Z,21.85
2018-11-14T12:38:47.439Z,21.80
2018-11-14T12:39:47.370Z,21.83
2018-11-14T12:40:47.359Z,21.80
2018-11-14T12:41:47.378Z,21.85
2018-11-14T12:42:47.341Z,21.83
2018-11-14T12:43:47.329Z,21.85
2018-11-14T12:44:47.321Z,21.84
2018-11-14T12:45:47.325Z,21.81
2018-11-14T12:46:47.308Z,21.81
2018-11-14T12:47:47.300Z,21.89
2018-11-14T12:48:47.286Z,21.81
2018-11-14T12:49:47.276Z,21.84
2018-11-14T12:50:47.267Z,21.78
2018-11-14T12:51:47.265Z,21.85
2018-11-14T12:52:47.262Z,21.84
2018-11-14T12:53:47.247Z,21.83
2018-11-14T12:54:47.227Z,21.75
2018-11-14T12:55:47.223Z,21.78
2018-11-14T12:56:47.216Z,21.80
2018-11-14T12:57:47.208Z,21.74
2018-11-14T12:58:47.200Z,21.80
2018-11-14T12:59:47.230Z,21.80
2018-11-14T13:00:47.170Z,21.80
2018-11-14T13:01:47.166Z,21.74
2018-11-14T13:02:47.160Z,21.80
2018-11-14T13:03:47.155Z,21.77
2018-11-14T13:04:47.154Z,21.80
2018-11-14T13:05:47.132Z,21.78
2018-11-14T13:06:47.122Z,21.77
2018-11-14T13:07:47.117Z,21.80
2018-11-14T13:08:47.107Z,21.77
2018-11-14T13:09:47.102Z,21.80
2018-11-14T13:10:47.086Z,21.69
2018-11-14T13:11:47.077Z,21.74
2018-11-14T13:12:47.072Z,21.74
2018-11-14T13:13:47.058Z,21.77
2018-11-14T13:14:47.052Z,21.78
2018-11-14T13:15:47.044Z,21.75
2018-11-14T13:16:47.041Z,21.74
2018-11-14T13:17:47.024Z,21.72
2018-11-14T13:18:47.013Z,21.84
2018-11-14T13:19:47.001Z,21.75
2018-11-14T13:20:47.004Z,21.84
2018-11-14T13:21:46.997Z,21.74
2018-11-14T13:22:46.979Z,21.74
2018-11-14T13:23:46.970Z,21.74
2018-11-14T13:24:46.961Z,21.77
2018-11-14T13:25:46.951Z,21.77
2018-11-14T13:26:46.941Z,21.78
2018-11-14T13:27:46.937Z,21.80
2018-11-14T13:28:46.939Z,21.78
2018-11-14T13:29:46.918Z,21.75
2018-11-14T13:30:46.905Z,21.81
2018-11-14T13:31:46.898Z,21.75
2018-11-14T13:32:46.894Z,21.78
2018-11-14T13:33:46.878Z,21.74
2018-11-14T13:34:46.872Z,21.78
2018-11-14T13:35:46.862Z,21.77
2018-11-14T13:36:46.851Z,21.75
2018-11-14T13:37:46.845Z,21.77
2018-11-14T13:38:46.834Z,21.77
2018-11-14T13:39:46.825Z,21.80
2018-11-14T13:40:46.813Z,21.72
2018-11-14T13:41:46.811Z,21.80
2018-11-14T13:42:46.797Z,21.77
2018-11-14T13:43:46.799Z,21.75
2018-11-14T13:44:46.783Z,21.77
2018-11-14T13:45:46.770Z,21.78
2018-11-14T13:46:46.760Z,21.77
2018-11-14T13:47:46.752Z,21.80
2018-11-14T13:48:46.799Z,21.75
2018-11-14T13:49:46.893Z,21.78
2018-11-14T13:50:47.021Z,21.77
2018-11-14T13:51:46.723Z,21.74
2018-11-14T13:52:46.709Z,21.80
2018-11-14T13:53:46.701Z,21.83
2018-11-14T13:54:46.689Z,21.80
2018-11-14T13:55:46.680Z,21.80
2018-11-14T13:56:46.670Z,21.75
2018-11-14T13:57:46.665Z,21.80
2018-11-14T13:58:46.654Z,21.77
2018-11-14T13:59:46.652Z,21.85
2018-11-14T14:00:46.632Z,21.80
2018-11-14T14:01:46.627Z,21.78
2018-11-14T14:02:46.610Z,21.81
2018-11-14T14:03:46.610Z,21.74
2018-11-14T14:04:46.605Z,21.78
2018-11-14T14:05:46.590Z,21.78
2018-11-14T14:06:46.590Z,21.78
2018-11-14T14:07:46.574Z,21.80
2018-11-14T14:08:46.564Z,21.83
2018-11-14T14:09:46.552Z,21.85
2018-11-14T14:10:46.550Z,21.77
2018-11-14T14:11:46.535Z,21.81
2018-11-14T14:12:46.527Z,21.75
2018-11-14T14:13:46.514Z,21.81
2018-11-14T14:14:46.508Z,21.80
2018-11-14T14:15:46.493Z,21.72
2018-11-14T14:16:46.491Z,21.80
2018-11-14T14:17:46.483Z,21.78
2018-11-14T14:18:46.468Z,21.77
2018-11-14T14:19:46.467Z,21.78
2018-11-14T14:20:46.452Z,21.78
2018-11-14T14:21:46.445Z,21.78
2018-11-14T14:22:46.435Z,21.84
2018-11-14T14:23:46.428Z,21.68
2018-11-14T14:24:46.428Z,21.81
2018-11-14T14:25:46.410Z,21.77
2018-11-14T14:26:46.410Z,21.77
2018-11-14T14:27:46.389Z,21.81
2018-11-14T14:28:46.380Z,21.77
2018-11-14T14:29:46.373Z,21.80
2018-11-14T14:30:46.412Z,21.80
2018-11-14T14:31:46.355Z,21.77
2018-11-14T14:32:46.352Z,21.77
2018-11-14T14:33:46.334Z,21.83
2018-11-14T14:34:46.327Z,21.77
2018-11-14T14:35:46.314Z,21.80
2018-11-14T14:36:46.309Z,21.75
2018-11-14T14:37:46.301Z,21.77
2018-11-14T14:38:46.290Z,21.85
2018-11-14T14:39:46.282Z,21.80
2018-11-14T14:40:46.275Z,21.77
2018-11-14T14:41:46.265Z,21.77
2018-11-14T14:42:46.263Z,21.77
2018-11-14T14:43:46.249Z,21.83
2018-11-14T14:44:46.236Z,21.77
2018-11-14T14:45:46.227Z,21.77
2018-11-14T14:46:46.218Z,21.75
2018-11-14T14:47:46.211Z,21.80
2018-11-14T14:48:46.224Z,21.77
2018-11-14T14:49:46.195Z,21.74
2018-11-14T14:50:46.180Z,21.78
2018-11-14T14:51:46.172Z,21.81
2018-11-14T14:52:46.164Z,21.81
2018-11-14T14:53:46.153Z,21.77
2018-11-14T14:54:46.143Z,21.77
2018-11-14T14:55:46.137Z,21.72
2018-11-14T14:56:46.123Z,21.78
2018-11-14T14:57:46.123Z,21.74
2018-11-14T14:58:46.119Z,21.80
2018-11-14T14:59:46.098Z,21.78
2018-11-14T15:00:46.091Z,21.77
2018-11-14T15:01:46.093Z,21.80
2018-11-14T15:02:46.072Z,21.77
2018-11-14T15:03:46.062Z,21.75
2018-11-14T15:04:46.055Z,21.77
2018-11-14T15:05:46.043Z,21.77
2018-11-14T15:06:46.041Z,21.77
2018-11-14T15:07:46.023Z,21.78
2018-11-14T15:08:46.022Z,21.81
2018-11-14T15:09:46.092Z,21.77
2018-11-14T15:10:46.002Z,21.75
2018-11-14T15:11:45.989Z,21.80
2018-11-14T15:12:45.981Z,21.77
2018-11-14T15:13:45.973Z,21.77
2018-11-14T15:14:45.965Z,21.77
2018-11-14T15:15:46.133Z,21.78
2018-11-14T15:16:45.945Z,21.77
2018-11-14T15:17:45.939Z,21.74
2018-11-14T15:18:45.923Z,21.74
2018-11-14T15:19:45.929Z,21.70
2018-11-14T15:20:45.908Z,21.74
2018-11-14T15:21:45.898Z,21.75
2018-11-14T15:22:45.977Z,21.72
2018-11-14T15:23:45.881Z,21.78
2018-11-14T15:24:45.873Z,21.75
2018-11-14T15:25:45.868Z,21.74
2018-11-14T15:26:45.859Z,21.74
2018-11-14T15:27:45.844Z,21.74
2018-11-14T15:28:45.895Z,21.78
2018-11-14T15:29:45.832Z,21.74
2018-11-14T15:30:45.823Z,21.77
2018-11-14T15:31:45.808Z,21.68
2018-11-14T15:32:45.798Z,21.72
2018-11-14T15:33:45.789Z,21.78
2018-11-14T15:34:45.782Z,21.75
2018-11-14T15:35:45.832Z,21.75
2018-11-14T15:36:45.762Z,21.77
2018-11-14T15:37:45.752Z,21.70
2018-11-14T15:38:45.740Z,21.80
2018-11-14T15:39:45.733Z,21.75
2018-11-14T15:40:45.733Z,21.81
2018-11-14T15:41:45.723Z,21.80
2018-11-14T15:42:45.821Z,21.74
2018-11-14T15:43:45.697Z,21.80
2018-11-14T15:44:45.690Z,21.80
2018-11-14T15:45:45.680Z,21.74
2018-11-14T15:46:45.669Z,21.70
2018-11-14T15:47:45.664Z,21.70
2018-11-14T15:48:45.653Z,21.70
2018-11-14T15:49:45.648Z,21.78
2018-11-14T15:50:45.644Z,21.69
2018-11-14T15:51:45.677Z,21.70
2018-11-14T15:52:45.622Z,21.78
2018-11-14T15:53:45.609Z,21.72
2018-11-14T15:54:45.598Z,21.80
2018-11-14T15:55:45.589Z,21.74
2018-11-14T15:56:45.581Z,21.77
2018-11-14T15:57:45.625Z,21.74
2018-11-14T15:58:45.566Z,21.74
2018-11-14T15:59:45.552Z,21.77
2018-11-14T16:00:45.541Z,21.77
2018-11-14T16:01:45.539Z,21.70
2018-11-14T16:02:45.529Z,21.62
2018-11-14T16:03:45.532Z,21.59
2018-11-14T16:04:45.511Z,21.60
2018-11-14T16:05:45.585Z,21.56
2018-11-14T16:06:45.495Z,21.53
2018-11-14T16:07:45.484Z,21.53
2018-11-14T16:08:45.476Z,21.48
2018-11-14T16:09:45.471Z,21.51
2018-11-14T16:10:45.457Z,21.65
2018-11-14T16:11:45.451Z,21.50
2018-11-14T16:12:45.435Z,21.60
2018-11-14T16:13:45.429Z,21.56
2018-11-14T16:14:45.422Z,21.54
2018-11-14T16:15:45.410Z,21.60
2018-11-14T16:16:45.400Z,21.63
2018-11-14T16:17:45.388Z,21.66
2018-11-14T16:18:45.379Z,21.70
2018-11-14T16:19:45.377Z,21.63
2018-11-14T16:20:45.371Z,21.59
2018-11-14T16:21:45.353Z,21.59
2018-11-14T16:22:45.353Z,21.58
2018-11-14T16:23:45.337Z,21.65
2018-11-14T16:24:45.378Z,21.68
2018-11-14T16:25:45.316Z,21.66
2018-11-14T16:26:45.308Z,21.65
2018-11-14T16:27:45.297Z,21.65
2018-11-14T16:28:45.290Z,21.66
2018-11-14T16:29:45.283Z,21.59
2018-11-14T16:30:45.274Z,21.59
2018-11-14T16:31:45.321Z,21.62
2018-11-14T16:32:45.255Z,21.68
2018-11-14T16:33:45.243Z,21.66
2018-11-14T16:34:45.240Z,21.65
2018-11-14T16:35:45.234Z,21.66
2018-11-14T16:36:45.216Z,21.68
2018-11-14T16:37:45.204Z,21.60
2018-11-14T16:38:45.203Z,21.66
2018-11-14T16:39:45.189Z,21.69
2018-11-14T16:40:45.183Z,21.65
2018-11-14T16:41:45.171Z,21.66
2018-11-14T16:42:45.160Z,21.69
2018-11-14T16:43:45.155Z,21.69
2018-11-14T16:44:45.140Z,21.70
2018-11-14T16:45:45.148Z,21.65
2018-11-14T16:46:45.122Z,21.63
2018-11-14T16:47:45.112Z,21.69
2018-11-14T16:48:45.144Z,21.69
2018-11-14T16:49:45.096Z,21.68
2018-11-14T16:50:45.092Z,21.68
2018-11-14T16:51:45.078Z,21.72
2018-11-14T16:52:45.070Z,21.70
2018-11-14T16:53:45.064Z,21.72
2018-11-14T16:54:45.056Z,21.78
2018-11-14T16:55:45.092Z,21.65
2018-11-14T16:56:45.041Z,21.66
2018-11-14T16:57:45.027Z,21.70
2018-11-14T16:58:45.015Z,21.72
2018-11-14T16:59:45.010Z,21.75
2018-11-14T17:00:44.995Z,21.83
2018-11-14T17:01:45.000Z,21.74
2018-11-14T17:02:44.977Z,21.75
2018-11-14T17:03:45.105Z,21.70
2018-11-14T17:04:44.966Z,21.74
2018-11-14T17:05:44.983Z,21.72
2018-11-14T17:06:44.944Z,21.77
2018-11-14T17:07:44.946Z,21.80
2018-11-14T17:08:44.923Z,21.83
2018-11-14T17:09:44.912Z,21.77
2018-11-14T17:10:44.905Z,21.81
2018-11-14T17:11:44.896Z,21.72
2018-11-14T17:12:44.891Z,21.74
2018-11-14T17:13:44.878Z,21.75
2018-11-14T17:14:44.918Z,21.74
2018-11-14T17:15:44.853Z,21.74
2018-11-14T17:16:44.848Z,21.77
2018-11-14T17:17:44.847Z,21.75
2018-11-14T17:18:44.829Z,21.72
2018-11-14T17:19:44.822Z,21.78
2018-11-14T17:20:44.813Z,21.78
2018-11-14T17:21:44.806Z,21.75
2018-11-14T17:22:44.797Z,21.78
2018-11-14T17:23:44.797Z,21.74
2018-11-14T17:24:44.782Z,21.81
2018-11-14T17:25:44.825Z,21.68
2018-11-14T17:26:44.772Z,21.69
2018-11-14T17:27:44.757Z,21.75
2018-11-14T17:28:44.751Z,21.69
2018-11-14T17:29:44.735Z,21.78
2018-11-14T17:30:44.725Z,21.77
2018-11-14T17:31:44.714Z,21.75
2018-11-14T17:32:44.705Z,21.74
2018-11-14T17:33:44.697Z,21.74
2018-11-14T17:34:44.697Z,21.69
2018-11-14T17:35:44.718Z,21.70
2018-11-14T17:36:44.675Z,21.75
2018-11-14T17:37:44.666Z,21.78
2018-11-14T17:38:45.788Z,21.74
2018-11-14T17:39:44.654Z,21.78
2018-11-14T17:40:44.635Z,21.70